Terminal Aerodrome Forecast
Issued by NWS Pittsburgh, PA

Current Version | Previous Version | Text Only | Print | Product List | Glossary Off
Versions: 1 2 3 4 5 6 7 8 9 10 11 12 13 14 15 16 17 18 19 20 21 22 23 24 25 26 27 28

000
FTUS41 KPBZ 281500 AAA
TAFPIT
TAF AMD
KPIT 281501Z 2815/0118 VRB03KT P6SM SCT250
     FM281700 VRB03KT P6SM BKN120
     FM010400 09006KT P6SM OVC080
     FM010800 14006KT 2SM -SN OVC015
     FM011400 18006KT 1SM -SN OVC010=

USA.gov is the U.S. government's official web portal to all federal, state and local government web resources and services.